Latest Weather Observations for Mardie

IDW60801

Issued at 11:53 am WST Thursday 13 December 2018 (issued every 10 minutes, with the page automatically refreshed every 10 minutes)

About weather observations | Map of weather stations | Latest weather observations for WA | Other Formats
Station Details ID: 005008 Name: MARDIE Lat: -21.19 Lon: 115.98 Height: 11.0 m
Data from the previous 72 hours. | See also: Recent months at Mardie
Date/Time
WST
Temp
°C
App
Temp
°C
Dew
Point
°C
Rel
Hum
%
Delta-T
°C
Wind Press
QNH
hPa
Press
MSL
hPa
Rain since
9am
mm
Dir  Spd
km/h
Gust
km/h
Spd
kts
Gust
kts
13/11:30am 36.4 34.2 16.0 29 12.9 WNW 22 32 12 17 1005.6 1005.5 0.0
13/11:00am 36.3 34.5 15.4 28 13.2 WNW 19 28 10 15 1006.0 1005.9 0.0
13/10:30am 35.6 33.4 14.3 28 13.2 WNW 19 24 10 13 1006.2 1006.1 0.0
13/10:00am 36.6 32.7 -1.4 9 18.6 WSW 9 17 5 9 1006.4 1006.3 0.0
13/09:30am 35.4 31.4 0.5 11 17.4 WSW 11 19 6 10 1006.4 1006.3 0.0
13/09:00am 33.5 29.5 0.2 12 16.4 SW 11 17 6 9 1006.6 1006.5 0.0
13/08:30am 31.8 27.3 2.0 15 14.9 SSW 15 22 8 12 1006.7 1006.6 0.0
13/08:00am 30.0 25.4 3.9 19 13.4 SW 17 22 9 12 1006.6 1006.5 0.0
13/07:30am 28.3 23.9 6.4 25 11.6 SSW 19 22 10 12 1006.4 1006.3 0.0
13/07:00am 25.5 21.9 8.5 34 9.2 SW 17 22 9 12 1006.2 1006.1 0.0
13/06:30am 23.9 21.4 8.3 37 8.3 SW 11 15 6 8 1006.1 1006.0 0.0
13/06:00am 21.5 19.1 7.0 39 7.4 SW 9 11 5 6 1005.9 1005.8 0.0
13/05:30am 21.0 18.1 6.5 39 7.3 SW 11 13 6 7 1005.7 1005.6 0.0
13/05:00am 21.1 18.1 5.9 37 7.6 SW 11 11 6 6 1005.5 1005.4 0.0
13/04:30am 21.4 18.2 5.3 35 8.0 SW 11 13 6 7 1005.4 1005.3 0.0
13/04:00am 21.7 19.0 5.6 35 8.1 SW 9 11 5 6 1005.3 1005.2 0.0
13/03:30am 22.4 19.4 5.8 34 8.4 SW 11 13 6 7 1005.1 1005.0 0.0
13/03:00am 22.9 20.6 7.4 37 8.1 SW 9 11 5 6 1005.0 1004.9 0.0
13/02:30am 23.0 20.9 9.8 43 7.2 WSW 11 13 6 7 1005.0 1004.9 0.0
13/02:00am 23.4 22.0 10.8 45 7.0 WSW 9 11 5 6 1004.8 1004.7 0.0
13/01:30am 24.0 23.4 12.3 48 6.7 WSW 7 11 4 6 1004.8 1004.7 0.0
13/01:00am 24.6 24.2 14.1 52 6.2 WSW 9 9 5 5 1004.8 1004.7 0.0
13/12:30am 25.4 25.7 16.0 56 5.7 WSW 9 13 5 7 1004.9 1004.8 0.0
13/12:00am 26.0 26.2 17.6 60 5.3 WSW 13 17 7 9 1005.1 1005.0 0.0
 
Date/Time
WST
Temp
°C
App
Temp
°C
Dew
Point
°C
Rel
Hum
%
Delta-T
°C
Wind Press
QNH
hPa
Press
MSL
hPa
Rain since
9am
mm
Dir  Spd
km/h
Gust
km/h
Spd
kts
Gust
kts
12/11:30pm 26.2 27.1 18.3 61 5.0 WSW 11 15 6 8 1005.5 1005.4 0.0
12/11:00pm 26.3 27.4 17.9 60 5.3 WSW 9 11 5 6 1006.0 1005.9 0.0
12/10:30pm 26.7 28.2 18.8 62 5.1 WSW 9 11 5 6 1006.1 1006.0 0.0
12/10:00pm 27.3 28.7 19.6 62 5.0 W 11 15 6 8 1005.9 1005.8 0.0
12/09:30pm 27.8 29.2 20.4 64 4.9 W 13 19 7 10 1005.6 1005.5 0.0
12/09:00pm 28.0 28.3 20.3 63 5.1 W 19 26 10 14 1005.3 1005.2 0.0
12/08:30pm 28.1 28.0 19.6 60 5.5 W 19 24 10 13 1005.2 1005.1 0.0
12/08:00pm 28.4 27.4 18.8 56 6.2 W 22 33 12 18 1005.0 1004.9 0.0
12/07:30pm 28.7 26.9 17.9 52 6.9 W 24 35 13 19 1004.8 1004.7 0.0
12/07:00pm 29.4 27.3 17.2 47 7.7 W 24 35 13 19 1004.5 1004.4 0.0
12/06:30pm 30.4 27.8 16.8 44 8.6 W 26 35 14 19 1004.3 1004.2 0.0
12/06:00pm 31.6 27.9 16.0 39 9.8 W 30 39 16 21 1004.1 1004.0 0.0
12/05:30pm 32.6 28.4 15.6 36 10.6 W 32 44 17 24 1003.9 1003.8 0.0
12/05:00pm 34.0 28.8 14.5 31 12.1 W 35 46 19 25 1003.8 1003.7 0.0
12/04:30pm 35.6 30.3 13.1 25 13.7 W 33 44 18 24 1003.8 1003.7 0.0
12/04:00pm 35.5 30.4 13.6 26 13.4 W 33 43 18 23 1003.8 1003.7 0.0
12/03:30pm 36.7 31.5 13.5 25 14.2 W 33 44 18 24 1003.8 1003.7 0.0
12/03:00pm 37.1 30.2 8.8 18 16.3 WNW 35 41 19 22 1004.2 1004.1 0.0
12/02:30pm 38.5 32.0 9.1 17 17.0 W 33 44 18 24 1004.5 1004.4 0.0
12/02:00pm 37.5 31.5 10.0 19 16.1 WNW 32 41 17 22 1004.9 1004.8 0.0
12/01:30pm 38.4 31.5 7.2 15 17.6 W 33 44 18 24 1005.2 1005.1 0.0
12/01:00pm 39.9 33.6 7.4 14 18.5 W 30 37 16 20 1005.5 1005.4 0.0
12/12:30pm 42.6 37.2 4.6 10 21.0 WSW 22 37 12 20 1005.6 1005.5 0.0
12/12:00pm 41.6 35.6 -3.2 6 22.0 SW 19 30 10 16 1005.8 1005.7 0.0
12/11:30am 39.9 34.6 -0.5 8 20.4 SW 17 26 9 14 1006.2 1006.1 0.0
12/11:00am 39.1 34.3 0.5 9 19.8 SW 15 24 8 13 1006.5 1006.4 0.0
12/10:30am 38.0 33.6 2.5 11 18.6 SSW 15 24 8 13 1007.0 1006.9 0.0
12/10:00am 37.3 32.8 4.3 13 17.7 SSW 17 28 9 15 1007.2 1007.1 0.0
12/09:30am 36.3 32.4 5.5 15 16.7 SSW 15 24 8 13 1007.5 1007.4 0.0
12/09:00am 34.6 30.1 6.0 17 15.5 S 19 30 10 16 1007.6 1007.5 0.0
12/08:30am 33.2 28.8 7.2 20 14.3 SSW 20 30 11 16 1007.8 1007.8 0.0
12/08:00am 31.7 27.1 8.0 23 13.1 SSW 22 30 12 16 1008.0 1008.0 0.0
12/07:30am 30.1 25.4 9.1 27 11.7 SSW 24 33 13 18 1007.9 1007.9 0.0
12/07:00am 28.8 23.6 9.0 29 11.0 SSW 26 33 14 18 1007.9 1007.9 0.0
12/06:30am 27.4 23.3 8.8 31 10.2 SSW 20 30 11 16 1007.8 1007.8 0.0
12/06:00am 26.1 22.8 8.1 32 9.7 SW 15 20 8 11 1007.7 1007.7 0.0
12/05:30am 25.7 21.7 6.8 30 9.9 SSW 17 20 9 11 1007.2 1007.1 0.0
12/05:00am 26.0 22.0 6.6 29 10.2 SSW 17 22 9 12 1006.8 1006.7 0.0
12/04:30am 26.4 23.0 5.9 27 10.6 SW 13 20 7 11 1006.6 1006.5 0.0
12/04:00am 26.2 22.6 5.2 26 10.7 SW 13 17 7 9 1006.4 1006.3 0.0
12/03:30am 26.6 22.5 4.4 24 11.2 SW 15 17 8 9 1006.2 1006.1 0.0
12/03:00am 26.7 22.7 2.6 21 11.8 SW 13 15 7 8 1006.2 1006.1 0.0
12/02:30am 27.6 23.3 1.2 18 12.7 SW 13 17 7 9 1006.1 1006.0 0.0
12/02:00am 27.9 23.5 0.6 17 13.0 SW 13 17 7 9 1006.2 1006.1 0.0
12/01:30am 28.8 24.2 -1.3 14 13.9 SW 13 17 7 9 1006.2 1006.1 0.0
12/01:00am 29.3 24.2 -1.9 13 14.4 SW 15 19 8 10 1006.3 1006.2 0.0
12/12:30am 29.6 24.0 -2.8 12 14.7 SW 17 20 9 11 1006.3 1006.2 0.0
12/12:00am 29.4 24.1 -0.9 14 14.2 SW 17 20 9 11 1006.6 1006.5 0.0
 
Date/Time
WST
Temp
°C
App
Temp
°C
Dew
Point
°C
Rel
Hum
%
Delta-T
°C
Wind Press
QNH
hPa
Press
MSL
hPa
Rain since
9am
mm
Dir  Spd
km/h
Gust
km/h
Spd
kts
Gust
kts
11/11:30pm 29.0 24.9 2.3 18 13.2 SW 13 17 7 9 1006.8 1006.7 0.0
11/11:00pm 29.1 26.7 8.7 28 11.3 SW 11 13 6 7 1006.8 1006.7 0.0
11/10:30pm 29.1 29.2 15.6 44 8.3 WSW 9 13 5 7 1006.7 1006.6 0.0
11/10:00pm 29.3 29.6 17.8 50 7.3 WSW 13 19 7 10 1006.7 1006.6 0.0
11/09:30pm 29.5 29.9 18.9 53 6.9 WSW 15 19 8 10 1006.3 1006.2 0.0
11/09:00pm 29.6 29.6 19.0 53 6.9 WSW 17 20 9 11 1006.0 1005.9 0.0
11/08:30pm 29.8 29.9 19.2 53 6.9 WSW 17 22 9 12 1005.6 1005.5 0.0
11/08:00pm 30.0 29.5 19.1 52 7.1 W 20 26 11 14 1005.4 1005.3 0.0
11/07:30pm 30.2 28.8 18.9 50 7.3 W 24 32 13 17 1005.1 1005.0 0.0
11/07:00pm 30.8 29.1 18.2 47 8.1 W 24 37 13 20 1004.9 1004.8 0.0
11/06:30pm 31.9 29.4 17.0 41 9.4 W 26 37 14 20 1004.6 1004.5 0.0
11/06:00pm 33.4 29.2 15.8 34 11.1 W 32 43 17 23 1004.3 1004.2 0.0
11/05:30pm 34.6 30.1 15.0 31 12.2 W 32 44 17 24 1004.0 1003.9 0.0
11/05:00pm 36.0 31.2 15.7 30 12.8 W 35 46 19 25 1004.0 1003.9 0.0
11/04:30pm 36.7 31.5 14.6 26 13.8 W 35 46 19 25 1004.0 1003.9 0.0
11/04:00pm 37.9 32.9 15.1 26 14.4 W 35 46 19 25 1004.1 1004.0 0.0
11/03:30pm 38.0 32.8 14.5 24 14.7 W 35 44 19 24 1004.1 1004.0 0.0
11/03:00pm 39.0 34.4 14.7 23 15.3 W 32 43 17 23 1004.3 1004.2 0.0
11/02:30pm 41.0 34.6 12.0 18 17.7 W 37 48 20 26 1004.4 1004.3 0.0
11/02:00pm 40.9 34.6 11.0 17 18.0 W 35 44 19 24 1004.7 1004.6 0.0
11/01:30pm 41.5 34.9 8.6 14 19.2 W 33 41 18 22 1004.9 1004.8 0.0
11/01:00pm 41.7 36.3 10.8 16 18.6 W 30 37 16 20 1005.2 1005.1 0.0
11/12:30pm 41.3 35.8 10.4 16 18.4 W 30 41 16 22 1005.3 1005.2 0.0
11/12:00pm 42.9 37.3 -0.2 7 22.3 SW 19 33 10 18 1005.8 1005.7 0.0
11/11:30am 42.1 36.4 -0.8 7 21.9 SSW 19 28 10 15 1006.3 1006.2 0.0
11/11:00am 41.5 36.9 -1.2 7 21.6 S 13 26 7 14 1006.5 1006.4 0.0
11/10:30am 40.4 35.3 -2.0 7 21.0 SSW 15 24 8 13 1006.8 1006.7 0.0
11/10:00am 38.8 34.3 4.3 12 18.7 SSW 17 26 9 14 1007.1 1007.0 0.0
11/09:30am 36.8 32.5 6.9 16 16.6 SSW 19 24 10 13 1007.4 1007.3 0.0
11/09:00am 35.2 31.0 7.3 18 15.5 SSW 19 24 10 13 1007.5 1007.4 -
11/08:30am 35.1 31.0 8.0 19 15.2 SSW 19 28 10 15 1007.5 1007.4 -
11/08:00am 34.0 30.3 9.3 22 14.1 SSW 19 26 10 14 1007.7 1007.7 -
11/07:30am 31.4 27.2 9.6 26 12.3 SSW 22 28 12 15 1007.6 1007.5 -
11/07:00am 29.2 26.6 9.3 29 11.1 SW 13 19 7 10 1007.4 1007.3 -
11/06:30am 27.2 25.8 9.5 33 9.8 SSW 7 9 4 5 1007.4 1007.3 -
11/06:00am 26.2 24.4 9.5 35 9.2 SW 9 13 5 7 1007.0 1006.9 -
11/05:30am 26.0 23.8 9.4 35 9.1 SW 11 15 6 8 1006.6 1006.5 -
11/05:00am 26.1 23.5 9.5 35 9.2 SW 13 17 7 9 1006.2 1006.1 -
11/04:30am 26.7 23.7 9.1 33 9.6 SW 15 19 8 10 1005.9 1005.8 -
11/04:00am 27.1 24.3 8.5 31 10.1 SW 13 17 7 9 1005.8 1005.7 -
11/03:30am 27.2 24.4 8.6 31 10.1 SW 13 15 7 8 1005.5 1005.4 -
11/03:00am 27.1 24.7 8.5 31 10.1 SW 11 13 6 7 1005.4 1005.3 -
11/02:30am 27.9 25.4 8.2 29 10.7 SW 11 15 6 8 1005.4 1005.3 -
11/02:00am 28.1 25.1 7.9 28 11.0 SW 13 15 7 8 1005.4 1005.3 -
11/01:30am 28.5 25.9 7.7 27 11.2 SW 11 15 6 8 1005.5 1005.4 -
11/01:00am 28.7 25.7 7.9 27 11.3 SW 13 15 7 8 1005.3 1005.2 -
11/12:30am 28.5 26.7 12.0 36 9.6 SSW 13 15 7 8 1005.5 1005.4 -
11/12:00am 27.3 27.4 14.0 44 7.9 SSW 6 7 3 4 1005.8 1005.7 -
 
Date/Time
WST
Temp
°C
App
Temp
°C
Dew
Point
°C
Rel
Hum
%
Delta-T
°C
Wind Press
QNH
hPa
Press
MSL
hPa
Rain since
9am
mm
Dir  Spd
km/h
Gust
km/h
Spd
kts
Gust
kts
10/11:30pm 28.6 28.3 14.4 41 8.6 SW 9 9 5 5 1005.8 1005.7 0.0
10/11:00pm 29.2 29.7 15.0 42 8.7 SW 6 7 3 4 1006.0 1005.9 0.0
10/10:30pm 29.9 30.4 15.6 42 8.8 SW 7 9 4 5 1006.0 1005.9 0.0
10/10:00pm 30.1 30.6 16.5 44 8.5 SW 9 11 5 6 1005.9 1005.8 0.0
10/09:30pm 30.4 32.2 17.5 46 8.2 WSW 4 7 2 4 1005.8 1005.7 0.0
10/09:00pm 31.3 32.5 18.3 46 8.4 WSW 9 11 5 6 1005.7 1005.6 0.0
10/08:30pm 30.9 32.8 18.9 48 7.8 WSW 7 11 4 6 1005.4 1005.3 0.0
10/08:00pm 31.4 33.1 18.4 46 8.4 SW 7 13 4 7 1005.3 1005.2 0.0
10/07:30pm 31.4 33.1 18.0 44 8.6 WNW 6 13 3 7 1005.1 1005.0 0.0
10/07:00pm 31.2 31.7 17.5 44 8.8 NNW 11 19 6 10 1004.7 1004.6 0.0
10/06:30pm 32.7 31.3 16.5 37 10.2 WNW 19 33 10 18 1004.4 1004.3 0.0
10/06:00pm 32.9 32.3 16.7 38 10.3 NNW 15 22 8 12 1004.4 1004.3 0.0
10/05:30pm 33.0 31.5 16.4 37 10.5 NNW 19 30 10 16 1004.1 1004.0 0.0
10/05:00pm 33.8 32.1 17.1 37 10.7 NW 22 30 12 16 1003.8 1003.7 0.0
10/04:30pm 33.4 32.7 18.3 40 9.8 NNW 19 28 10 15 1003.9 1003.8 0.0
10/04:00pm 34.4 33.0 18.0 37 10.7 NW 22 30 12 16 1004.0 1003.9 0.0
10/03:30pm 36.9 34.2 16.5 30 13.1 WNW 26 43 14 23 1003.9 1003.8 0.0
10/03:00pm 38.8 34.6 15.8 25 14.7 W 32 46 17 25 1003.5 1003.4 0.0
10/02:30pm 39.1 33.6 13.5 22 15.8 W 35 44 19 24 1003.6 1003.5 0.0
10/02:00pm 39.7 34.5 13.3 21 16.4 WNW 33 43 18 23 1003.9 1003.8 0.0
10/01:30pm 41.8 37.3 12.6 18 18.0 W 28 37 15 20 1004.2 1004.1 0.0
10/01:00pm 40.5 36.2 13.2 20 16.9 W 28 35 15 19 1004.2 1004.1 0.0
10/12:30pm 40.8 36.3 12.6 19 17.3 W 28 35 15 19 1004.6 1004.5 0.0
10/12:00pm 41.3 37.7 13.0 19 17.6 WNW 24 32 13 17 1004.8 1004.7 0.0

Other Formats:

Comma delimited format used in spreadsheet applications
http://www.bom.gov.au/fwo/IDW60801/IDW60801.94306.axf

JavaScript Object Notation format (JSON) in row-major order
http://www.bom.gov.au/fwo/IDW60801/IDW60801.94306.json